createdAt,value
2022-09-25T00:01:14.140Z,20.20
2022-09-25T00:03:41.795Z,19.20
2022-09-25T00:06:16.091Z,20.52
2022-09-25T00:08:43.499Z,20.67
2022-09-25T00:11:19.801Z,19.42
2022-09-25T00:13:47.779Z,21.05
2022-09-25T00:16:23.009Z,21.08
2022-09-25T00:19:08.745Z,20.55
2022-09-25T00:21:37.553Z,19.85
2022-09-25T00:24:08.256Z,19.50
2022-09-25T00:26:40.547Z,20.75
2022-09-25T00:29:08.813Z,20.63
2022-09-25T00:31:35.655Z,21.15
2022-09-25T00:34:05.138Z,21.38
2022-09-25T00:36:33.146Z,20.40
2022-09-25T00:39:01.977Z,20.48
2022-09-25T00:41:31.995Z,20.85
2022-09-25T00:44:02.342Z,20.65
2022-09-25T00:46:38.648Z,20.45
2022-09-25T00:49:22.837Z,20.92
2022-09-25T00:52:04.565Z,20.02
2022-09-25T00:54:36.430Z,20.35
2022-09-25T00:57:08.455Z,21.20
2022-09-25T00:59:43.134Z,20.40
2022-09-25T01:02:18.933Z,20.23
2022-09-25T01:08:52.510Z,21.05
2022-09-25T01:11:19.480Z,20.15
2022-09-25T01:13:46.462Z,20.35
2022-09-25T01:16:30.177Z,21.05
2022-09-25T01:19:04.022Z,21.08
2022-09-25T01:22:09.259Z,20.42
2022-09-25T01:24:57.782Z,19.88
2022-09-25T01:27:37.613Z,19.45
2022-09-25T01:30:16.568Z,19.88
2022-09-25T01:32:57.046Z,19.70
2022-09-25T01:35:54.211Z,19.58
2022-09-25T01:38:43.910Z,20.10
2022-09-25T01:41:45.047Z,19.35
2022-09-25T01:44:22.895Z,20.25
2022-09-25T01:46:53.471Z,20.88
2022-09-25T01:49:33.165Z,19.35
2022-09-25T01:52:03.236Z,20.55
2022-09-25T01:54:34.162Z,20.15
2022-09-25T01:57:14.317Z,20.42
2022-09-25T02:00:11.558Z,19.95
2022-09-25T02:02:46.412Z,19.23
2022-09-25T02:05:32.271Z,19.20
2022-09-25T02:08:07.444Z,20.00
2022-09-25T02:10:46.728Z,20.02
2022-09-25T02:13:20.954Z,20.45
2022-09-25T02:15:54.378Z,19.40
2022-09-25T02:18:41.570Z,18.88
2022-09-25T02:21:28.676Z,20.55
2022-09-25T02:24:15.028Z,20.80
2022-09-25T02:26:41.877Z,19.98
2022-09-25T02:29:09.196Z,22.27
2022-09-25T02:31:49.208Z,20.98
2022-09-25T02:34:16.654Z,23.30
2022-09-25T02:36:45.065Z,26.02
2022-09-25T02:39:16.276Z,23.50
2022-09-25T02:42:18.470Z,23.23
2022-09-25T02:45:17.614Z,27.10
2022-09-25T02:48:21.865Z,24.48
2022-09-25T02:51:17.630Z,22.25
2022-09-25T02:54:21.171Z,19.20
2022-09-25T02:57:04.390Z,18.67
2022-09-25T02:59:39.119Z,18.33
2022-09-25T03:02:06.679Z,19.05
2022-09-25T03:04:36.451Z,20.38
2022-09-25T03:07:03.720Z,20.25
2022-09-25T03:09:35.896Z,21.15
2022-09-25T03:12:05.087Z,20.10
2022-09-25T03:14:32.742Z,19.67
2022-09-25T03:17:04.749Z,19.85
2022-09-25T03:19:34.853Z,18.27
2022-09-25T03:22:02.996Z,18.90
2022-09-25T03:24:30.258Z,18.67
2022-09-25T03:26:57.495Z,19.15
2022-09-25T03:29:24.545Z,20.73
2022-09-25T03:31:51.513Z,19.08
2022-09-25T03:34:19.344Z,19.25
2022-09-25T03:36:49.210Z,17.73
2022-09-25T03:39:19.683Z,20.05
2022-09-25T03:41:47.711Z,17.10
2022-09-25T03:44:14.843Z,16.90
2022-09-25T03:46:41.710Z,17.27
2022-09-25T03:49:10.588Z,16.02
2022-09-25T03:51:38.819Z,16.75
2022-09-25T03:54:05.882Z,17.30
2022-09-25T03:56:32.995Z,15.52
2022-09-25T03:59:00.078Z,16.92
2022-09-25T04:01:28.562Z,16.42
2022-09-25T04:03:55.858Z,16.58
2022-09-25T04:06:25.782Z,18.15
2022-09-25T04:08:54.143Z,17.63
2022-09-25T04:11:24.163Z,19.35
2022-09-25T04:13:51.064Z,18.60
2022-09-25T04:16:20.949Z,18.88
2022-09-25T04:18:47.882Z,19.05
2022-09-25T04:21:15.246Z,17.83
2022-09-25T04:23:42.671Z,18.55
2022-09-25T04:26:10.028Z,18.75
2022-09-25T04:28:37.608Z,19.10
2022-09-25T04:31:05.255Z,19.10
2022-09-25T04:33:48.186Z,18.42
2022-09-25T04:36:16.960Z,19.42
2022-09-25T04:38:44.251Z,19.15
2022-09-25T04:41:11.703Z,17.85
2022-09-25T04:43:42.641Z,18.73
2022-09-25T04:46:15.449Z,20.00
2022-09-25T04:48:46.401Z,19.60
2022-09-25T04:51:13.439Z,19.50
2022-09-25T04:53:41.522Z,19.52
2022-09-25T04:56:14.749Z,19.75
2022-09-25T04:58:50.127Z,20.63
2022-09-25T05:01:20.314Z,20.33
2022-09-25T05:03:53.894Z,19.67
2022-09-25T05:06:21.501Z,21.60
2022-09-25T05:08:49.652Z,20.42
2022-09-25T05:11:16.583Z,20.80
2022-09-25T05:13:47.155Z,22.60
2022-09-25T05:16:14.175Z,21.35
2022-09-25T05:18:42.014Z,21.13
2022-09-25T05:21:08.829Z,21.02
2022-09-25T05:23:35.641Z,23.02
2022-09-25T05:26:02.968Z,22.00
2022-09-25T05:28:31.141Z,21.50
2022-09-25T05:31:03.806Z,23.05
2022-09-25T05:33:32.738Z,22.52
2022-09-25T05:36:07.771Z,29.65
2022-09-25T05:38:37.652Z,26.50
2022-09-25T05:41:10.677Z,23.80
2022-09-25T05:46:16.194Z,23.35
2022-09-25T05:48:43.463Z,24.65
2022-09-25T05:51:11.040Z,23.73
2022-09-25T05:53:38.235Z,20.48
2022-09-25T05:56:06.040Z,20.83
2022-09-25T05:58:34.853Z,20.60
2022-09-25T06:01:04.910Z,21.67
2022-09-25T06:03:32.173Z,19.98
2022-09-25T06:06:00.119Z,20.60
2022-09-25T06:08:31.176Z,20.33
2022-09-25T06:11:00.695Z,20.30
2022-09-25T06:13:30.170Z,20.05
2022-09-25T06:15:58.162Z,19.13
2022-09-25T06:18:26.265Z,19.55
2022-09-25T06:21:01.994Z,20.15
2022-09-25T06:23:29.315Z,19.40
2022-09-25T06:26:04.067Z,18.75
2022-09-25T06:28:31.477Z,20.52
2022-09-25T06:31:03.510Z,20.45
2022-09-25T06:33:31.290Z,21.17
2022-09-25T06:35:58.179Z,31.52
2022-09-25T06:38:25.911Z,22.85
2022-09-25T06:40:53.039Z,20.25
2022-09-25T06:43:19.922Z,20.17
2022-09-25T06:45:49.055Z,21.05
2022-09-25T06:48:16.387Z,23.48
2022-09-25T06:50:46.066Z,27.55
2022-09-25T06:53:14.891Z,22.88
2022-09-25T06:55:43.155Z,21.17
2022-09-25T06:58:14.627Z,18.20
2022-09-25T07:00:42.276Z,19.13
2022-09-25T07:03:28.080Z,20.27
2022-09-25T07:05:55.363Z,21.45
2022-09-25T07:08:22.206Z,18.30
2022-09-25T07:10:51.855Z,18.05
2022-09-25T07:13:24.539Z,19.35
2022-09-25T07:16:03.179Z,17.98
2022-09-25T07:18:30.564Z,16.70
2022-09-25T07:21:06.045Z,14.75
2022-09-25T07:23:35.124Z,15.13
2022-09-25T07:26:11.554Z,15.07
2022-09-25T07:28:40.387Z,15.20
2022-09-25T07:31:22.943Z,16.40
2022-09-25T07:33:50.049Z,15.48
2022-09-25T07:36:23.205Z,15.18
2022-09-25T07:38:52.151Z,17.03
2022-09-25T07:41:22.406Z,15.98
2022-09-25T07:46:45.909Z,16.40
2022-09-25T07:49:13.914Z,15.68
2022-09-25T07:51:40.878Z,13.40
2022-09-25T07:54:09.224Z,13.18
2022-09-25T07:56:38.483Z,14.75
2022-09-25T07:59:06.024Z,13.18
2022-09-25T08:01:33.001Z,13.18
2022-09-25T08:03:59.872Z,11.68
2022-09-25T08:06:26.937Z,12.55
2022-09-25T08:08:53.778Z,11.50
2022-09-25T08:11:20.668Z,13.18
2022-09-25T08:13:48.136Z,12.05
2022-09-25T08:16:18.285Z,11.27
2022-09-25T08:18:47.876Z,12.10
2022-09-25T08:21:19.875Z,12.68
2022-09-25T08:23:55.467Z,12.48
2022-09-25T08:26:23.695Z,12.00
2022-09-25T08:28:52.075Z,12.80
2022-09-25T08:31:19.927Z,11.93
2022-09-25T08:33:49.139Z,11.13
2022-09-25T08:36:19.210Z,12.07
2022-09-25T08:38:47.311Z,12.60
2022-09-25T08:41:43.969Z,14.18
2022-09-25T08:45:08.944Z,13.57
2022-09-25T08:47:53.629Z,13.55
2022-09-25T08:50:24.889Z,13.52
2022-09-25T08:53:25.404Z,14.27
2022-09-25T08:56:12.416Z,13.13
2022-09-25T08:58:43.985Z,13.77
2022-09-25T09:01:28.387Z,13.63
2022-09-25T09:04:22.038Z,13.88
2022-09-25T09:07:27.360Z,13.63
2022-09-25T09:10:28.910Z,14.25
2022-09-25T09:13:44.440Z,15.90
2022-09-25T09:16:23.344Z,15.18
2022-09-25T09:18:50.704Z,15.90
2022-09-25T09:21:25.690Z,14.98
2022-09-25T09:24:15.773Z,13.95
2022-09-25T09:27:22.802Z,14.55
2022-09-25T09:30:23.730Z,14.20
2022-09-25T09:33:09.128Z,14.23
2022-09-25T09:36:37.082Z,15.02
2022-09-25T09:39:59.399Z,18.55
2022-09-25T09:43:03.806Z,15.77
2022-09-25T09:45:48.946Z,12.13
2022-09-25T09:48:39.614Z,16.92
2022-09-25T09:51:13.834Z,13.20
2022-09-25T09:53:54.276Z,12.02
2022-09-25T09:56:31.613Z,13.38
2022-09-25T09:59:05.904Z,12.88
2022-09-25T10:01:42.515Z,12.50
2022-09-25T10:04:20.191Z,12.32
2022-09-25T10:07:01.045Z,12.00
2022-09-25T10:09:30.101Z,11.00
2022-09-25T10:12:32.908Z,11.32
2022-09-25T10:15:05.439Z,10.70
2022-09-25T10:17:36.145Z,11.25
2022-09-25T10:20:19.868Z,15.05
2022-09-25T10:22:47.322Z,11.45
2022-09-25T10:25:14.589Z,10.77
2022-09-25T10:27:49.519Z,11.18
2022-09-25T10:30:20.977Z,11.60
2022-09-25T10:33:03.677Z,11.55
2022-09-25T10:35:39.751Z,10.63
2022-09-25T10:38:35.631Z,11.02
2022-09-25T10:41:09.047Z,12.70
2022-09-25T10:43:36.116Z,14.30
2022-09-25T10:46:15.265Z,13.35
2022-09-25T10:49:01.600Z,10.43
2022-09-25T10:51:31.102Z,13.43
2022-09-25T10:54:10.490Z,12.82
2022-09-25T10:56:39.541Z,13.68
2022-09-25T10:59:23.944Z,13.02
2022-09-25T11:01:55.019Z,13.88
2022-09-25T11:04:28.918Z,14.75
2022-09-25T11:07:07.545Z,13.93
2022-09-25T11:09:37.154Z,13.73
2022-09-25T11:12:20.336Z,13.18
2022-09-25T11:14:59.985Z,13.63
2022-09-25T11:17:42.939Z,12.98
2022-09-25T11:20:16.499Z,11.20
2022-09-25T11:23:14.688Z,10.98
2022-09-25T11:25:53.128Z,10.98
2022-09-25T11:28:55.489Z,10.63
2022-09-25T11:31:44.375Z,10.02
2022-09-25T11:34:52.565Z,11.57
2022-09-25T11:37:34.341Z,11.40
2022-09-25T11:40:28.702Z,11.75
2022-09-25T11:43:12.163Z,10.95
2022-09-25T11:46:03.216Z,12.82
2022-09-25T11:48:55.016Z,11.07
2022-09-25T11:51:50.798Z,10.90
2022-09-25T11:54:36.449Z,10.30
2022-09-25T11:57:34.787Z,9.38
2022-09-25T12:00:15.028Z,10.57
2022-09-25T12:03:43.356Z,10.15
2022-09-25T12:06:27.966Z,10.45
2022-09-25T12:09:27.230Z,9.38
2022-09-25T12:12:14.152Z,8.98
2022-09-25T12:15:39.680Z,9.05
2022-09-25T12:18:46.332Z,8.88
2022-09-25T12:21:39.064Z,9.27
2022-09-25T12:24:37.249Z,9.20
2022-09-25T12:27:18.419Z,11.25
2022-09-25T12:30:07.068Z,10.05
2022-09-25T12:32:42.949Z,8.68
2022-09-25T12:35:22.853Z,9.18
2022-09-25T12:38:20.997Z,9.80
2022-09-25T12:41:12.753Z,8.65
2022-09-25T12:43:52.999Z,8.35
2022-09-25T12:46:25.729Z,8.73
2022-09-25T12:49:08.418Z,7.88
2022-09-25T12:51:48.845Z,9.02
2022-09-25T12:54:41.129Z,8.65
2022-09-25T12:58:18.234Z,9.40
2022-09-25T13:00:51.336Z,9.93
2022-09-25T13:03:39.288Z,9.93
2022-09-25T13:06:29.093Z,9.63
2022-09-25T13:09:07.117Z,9.68
2022-09-25T13:11:48.618Z,10.27
2022-09-25T13:14:41.519Z,9.80
2022-09-25T13:17:12.792Z,10.40
2022-09-25T13:19:39.978Z,9.57
2022-09-25T13:22:20.725Z,9.77
2022-09-25T13:25:15.494Z,8.73
2022-09-25T13:27:46.103Z,8.95
2022-09-25T13:30:29.705Z,9.35
2022-09-25T13:33:02.842Z,9.95
2022-09-25T13:38:39.990Z,9.77
2022-09-25T13:41:13.032Z,8.55
2022-09-25T13:46:27.083Z,9.98
2022-09-25T13:48:55.905Z,9.10
2022-09-25T13:51:22.652Z,9.25
2022-09-25T13:54:04.950Z,9.80
2022-09-25T13:56:40.642Z,9.98
2022-09-25T13:59:10.720Z,11.30
2022-09-25T14:01:50.970Z,8.80
2022-09-25T14:04:45.150Z,8.88
2022-09-25T14:07:25.108Z,9.38
2022-09-25T14:09:57.320Z,8.50
2022-09-25T14:12:40.612Z,12.00
2022-09-25T14:15:30.419Z,10.63
2022-09-25T14:17:59.650Z,11.52
2022-09-25T14:20:37.738Z,10.32
2022-09-25T14:23:12.893Z,10.35
2022-09-25T14:25:44.692Z,10.55
2022-09-25T14:28:22.798Z,13.77
2022-09-25T14:31:23.629Z,10.52
2022-09-25T14:34:15.442Z,14.55
2022-09-25T14:37:32.123Z,9.70
2022-09-25T14:40:34.293Z,9.43
2022-09-25T14:43:07.341Z,10.25
2022-09-25T14:48:26.044Z,8.45
2022-09-25T14:51:00.952Z,9.52
2022-09-25T14:53:40.361Z,9.90
2022-09-25T14:56:15.203Z,8.82
2022-09-25T14:58:57.791Z,9.85
2022-09-25T15:01:34.533Z,8.38
2022-09-25T15:04:06.258Z,8.50
2022-09-25T15:06:36.848Z,9.02
2022-09-25T15:09:47.395Z,8.50
2022-09-25T15:12:20.448Z,10.32
2022-09-25T15:15:13.988Z,11.20
2022-09-25T15:20:23.475Z,9.48
2022-09-25T15:22:58.234Z,9.88
2022-09-25T15:25:33.273Z,9.23
2022-09-25T15:28:00.523Z,8.95
2022-09-25T15:30:28.685Z,9.38
2022-09-25T15:33:00.499Z,9.68
2022-09-25T15:35:29.893Z,10.37
2022-09-25T15:38:12.850Z,9.73
2022-09-25T15:40:41.382Z,9.95
2022-09-25T15:43:16.234Z,10.23
2022-09-25T15:45:55.951Z,8.93
2022-09-25T15:48:33.017Z,10.77
2022-09-25T15:51:05.108Z,9.90
2022-09-25T15:53:44.724Z,12.77
2022-09-25T15:56:28.708Z,11.93
2022-09-25T15:59:04.831Z,12.82
2022-09-25T16:01:52.749Z,11.02
2022-09-25T16:04:43.097Z,9.75
2022-09-25T16:07:39.121Z,9.57
2022-09-25T16:10:12.055Z,9.88
2022-09-25T16:12:47.639Z,10.23
2022-09-25T16:15:32.257Z,8.93
2022-09-25T16:18:24.438Z,9.48
2022-09-25T16:21:06.951Z,9.90
2022-09-25T16:23:34.738Z,10.55
2022-09-25T16:26:01.776Z,10.07
2022-09-25T16:28:33.628Z,9.80
2022-09-25T16:31:08.168Z,10.02
2022-09-25T16:33:51.856Z,9.63
2022-09-25T16:36:19.305Z,10.98
2022-09-25T16:39:10.603Z,10.07
2022-09-25T16:41:40.476Z,10.27
2022-09-25T16:44:22.510Z,9.85
2022-09-25T16:46:52.470Z,9.95
2022-09-25T16:49:22.153Z,12.30
2022-09-25T16:51:53.044Z,14.00
2022-09-25T16:54:30.740Z,14.00
2022-09-25T16:57:02.238Z,16.52
2022-09-25T16:59:29.987Z,14.68
2022-09-25T17:02:06.125Z,20.23
2022-09-25T17:04:35.847Z,13.68
2022-09-25T17:07:02.684Z,11.50
2022-09-25T17:09:31.287Z,13.32
2022-09-25T17:12:10.572Z,14.00
2022-09-25T17:14:37.607Z,14.50
2022-09-25T17:17:04.457Z,20.83
2022-09-25T17:19:31.876Z,15.88
2022-09-25T17:21:58.923Z,15.60
2022-09-25T17:24:27.616Z,16.63
2022-09-25T17:26:54.732Z,13.98
2022-09-25T17:29:22.711Z,15.93
2022-09-25T17:31:49.797Z,16.13
2022-09-25T17:34:25.005Z,16.17
2022-09-25T17:36:52.587Z,14.20
2022-09-25T17:39:19.760Z,15.05
2022-09-25T17:41:47.164Z,20.73
2022-09-25T17:44:18.787Z,23.13
2022-09-25T17:46:45.989Z,21.52
2022-09-25T17:49:13.369Z,21.88
2022-09-25T17:51:40.733Z,23.70
2022-09-25T17:54:09.448Z,20.40
2022-09-25T17:56:37.693Z,26.40
2022-09-25T17:59:06.664Z,33.20
2022-09-25T18:01:39.211Z,33.38
2022-09-25T18:04:24.050Z,34.35
2022-09-25T18:06:58.000Z,39.83
2022-09-25T18:09:24.818Z,42.13
2022-09-25T18:11:52.557Z,42.88
2022-09-25T18:14:19.467Z,41.97
2022-09-25T18:16:46.319Z,41.10
2022-09-25T18:19:35.483Z,34.20
2022-09-25T18:22:17.611Z,28.60
2022-09-25T18:24:46.126Z,25.20
2022-09-25T18:27:15.005Z,23.05
2022-09-25T18:29:41.985Z,23.10
2022-09-25T18:32:09.302Z,22.45
2022-09-25T18:34:36.521Z,21.33
2022-09-25T18:37:03.425Z,24.55
2022-09-25T18:39:30.689Z,22.67
2022-09-25T18:41:57.620Z,17.27
2022-09-25T18:44:24.664Z,16.88
2022-09-25T18:46:53.201Z,15.52
2022-09-25T18:49:20.236Z,15.15
2022-09-25T18:51:47.770Z,13.88
2022-09-25T18:54:15.576Z,15.45
2022-09-25T18:56:42.650Z,14.07
2022-09-25T18:59:09.732Z,16.55
2022-09-25T19:01:38.284Z,20.45
2022-09-25T19:04:06.930Z,16.42
2022-09-25T19:06:34.405Z,17.25
2022-09-25T19:09:01.365Z,21.67
2022-09-25T19:11:28.382Z,24.52
2022-09-25T19:13:55.929Z,20.80
2022-09-25T19:16:23.526Z,18.83
2022-09-25T19:18:50.892Z,16.50
2022-09-25T19:21:23.186Z,18.00
2022-09-25T19:23:50.499Z,20.90
2022-09-25T19:26:22.401Z,17.42
2022-09-25T19:28:49.396Z,16.67
2022-09-25T19:31:25.292Z,14.63
2022-09-25T19:33:54.570Z,15.43
2022-09-25T19:36:30.572Z,17.08
2022-09-25T19:38:58.411Z,14.52
2022-09-25T19:41:31.561Z,14.93
2022-09-25T19:46:29.428Z,14.15
2022-09-25T19:48:56.618Z,13.93
2022-09-25T19:51:25.198Z,13.15
2022-09-25T19:53:54.373Z,11.88
2022-09-25T19:56:22.141Z,12.93
2022-09-25T19:58:51.167Z,13.55
2022-09-25T20:01:19.439Z,13.32
2022-09-25T20:03:46.519Z,13.75
2022-09-25T20:06:13.562Z,12.50
2022-09-25T20:08:40.552Z,14.85
2022-09-25T20:11:24.452Z,13.30
2022-09-25T20:13:53.759Z,13.85
2022-09-25T20:16:25.186Z,14.48
2022-09-25T20:19:01.766Z,14.40
2022-09-25T20:21:36.584Z,13.80
2022-09-25T20:24:06.721Z,14.32
2022-09-25T20:26:34.052Z,14.93
2022-09-25T20:29:08.775Z,14.68
2022-09-25T20:31:38.238Z,14.77
2022-09-25T20:34:05.383Z,14.07
2022-09-25T20:36:32.686Z,14.77
2022-09-25T20:39:00.955Z,12.85
2022-09-25T20:41:27.776Z,12.75
2022-09-25T20:43:57.071Z,12.57
2022-09-25T20:46:26.594Z,11.75
2022-09-25T20:48:57.422Z,12.52
2022-09-25T20:51:30.875Z,11.98
2022-09-25T20:54:07.952Z,11.70
2022-09-25T20:56:36.953Z,12.45
2022-09-25T20:59:05.465Z,12.07
2022-09-25T21:01:36.512Z,12.18
2022-09-25T21:04:07.761Z,13.27
2022-09-25T21:06:38.071Z,13.45
2022-09-25T21:09:10.147Z,13.43
2022-09-25T21:11:38.912Z,13.55
2022-09-25T21:14:06.143Z,13.10
2022-09-25T21:16:34.322Z,13.65
2022-09-25T21:19:04.659Z,14.70
2022-09-25T21:21:33.512Z,13.15
2022-09-25T21:24:02.297Z,14.40
2022-09-25T21:26:31.168Z,13.50
2022-09-25T21:29:01.185Z,14.00
2022-09-25T21:31:35.377Z,14.07
2022-09-25T21:34:03.250Z,13.82
2022-09-25T21:36:30.754Z,14.32
2022-09-25T21:38:59.533Z,13.77
2022-09-25T21:41:29.098Z,13.88
2022-09-25T21:44:13.083Z,14.13
2022-09-25T21:46:40.484Z,14.73
2022-09-25T21:49:08.663Z,14.32
2022-09-25T21:51:39.044Z,13.13
2022-09-25T21:54:08.376Z,13.20
2022-09-25T21:56:35.237Z,13.77
2022-09-25T21:59:08.276Z,14.45
2022-09-25T22:01:38.237Z,12.52
2022-09-25T22:04:06.240Z,11.88
2022-09-25T22:06:39.784Z,11.30
2022-09-25T22:09:13.747Z,11.38
2022-09-25T22:11:42.407Z,10.18
2022-09-25T22:14:15.403Z,10.65
2022-09-25T22:16:45.876Z,11.77
2022-09-25T22:19:22.908Z,11.18
2022-09-25T22:21:52.343Z,12.02
2022-09-25T22:24:19.916Z,10.55
2022-09-25T22:26:48.996Z,11.23
2022-09-25T22:29:16.960Z,11.95
2022-09-25T22:31:44.342Z,10.95
2022-09-25T22:34:27.341Z,11.27
2022-09-25T22:36:59.668Z,11.07
2022-09-25T22:41:55.716Z,11.50
2022-09-25T22:44:23.050Z,10.48
2022-09-25T22:46:50.271Z,9.68
2022-09-25T22:49:17.489Z,9.55
2022-09-25T22:51:44.324Z,9.85
2022-09-25T22:54:13.726Z,9.63
2022-09-25T22:56:40.875Z,9.13
2022-09-25T22:59:13.757Z,10.20
2022-09-25T23:01:53.529Z,9.88
2022-09-25T23:04:23.782Z,10.30
2022-09-25T23:06:51.522Z,8.60
2022-09-25T23:09:27.444Z,9.98
2022-09-25T23:11:56.377Z,9.70
2022-09-25T23:14:26.932Z,11.00
2022-09-25T23:16:54.842Z,10.20
2022-09-25T23:19:23.451Z,10.60
2022-09-25T23:21:55.022Z,10.05
2022-09-25T23:24:23.269Z,11.43
2022-09-25T23:26:51.374Z,10.45
2022-09-25T23:29:20.640Z,9.80
2022-09-25T23:31:49.130Z,11.60
2022-09-25T23:34:16.828Z,10.75
2022-09-25T23:36:43.972Z,10.13
2022-09-25T23:39:16.955Z,10.70
2022-09-25T23:41:44.100Z,10.63
2022-09-25T23:44:11.628Z,10.38
2022-09-25T23:46:41.121Z,10.27
2022-09-25T23:49:09.778Z,10.25
2022-09-25T23:51:36.902Z,10.52
2022-09-25T23:54:04.370Z,10.32
2022-09-25T23:56:33.885Z,10.90
2022-09-25T23:59:02.343Z,11.07
